createdAt,value
2018-07-04T00:00:41.313Z,16.26
2018-07-04T00:01:41.492Z,16.31
2018-07-04T00:02:41.680Z,16.13
2018-07-04T00:03:41.868Z,16.17
2018-07-04T00:04:42.051Z,16.15
2018-07-04T00:05:42.231Z,16.12
2018-07-04T00:06:42.417Z,16.09
2018-07-04T00:07:42.601Z,16.08
2018-07-04T00:08:42.794Z,16.10
2018-07-04T00:09:42.971Z,16.16
2018-07-04T00:10:43.154Z,16.15
2018-07-04T00:11:43.329Z,16.10
2018-07-04T00:12:43.510Z,16.05
2018-07-04T00:13:43.682Z,16.08
2018-07-04T00:14:43.863Z,15.97
2018-07-04T00:15:44.042Z,15.92
2018-07-04T00:16:44.221Z,15.94
2018-07-04T00:17:44.397Z,15.83
2018-07-04T00:18:44.577Z,15.79
2018-07-04T00:19:44.755Z,15.80
2018-07-04T00:20:44.932Z,15.77
2018-07-04T00:21:45.119Z,15.76
2018-07-04T00:22:45.299Z,15.75
2018-07-04T00:23:45.473Z,15.72
2018-07-04T00:24:45.648Z,15.72
2018-07-04T00:25:45.873Z,15.70
2018-07-04T00:26:46.008Z,15.76
2018-07-04T00:27:46.182Z,15.76
2018-07-04T00:28:46.365Z,15.65
2018-07-04T00:29:46.544Z,15.59
2018-07-04T00:30:46.724Z,15.52
2018-07-04T00:31:46.904Z,15.47
2018-07-04T00:32:47.089Z,15.46
2018-07-04T00:33:47.273Z,15.43
2018-07-04T00:34:47.452Z,15.42
2018-07-04T00:35:47.643Z,15.49
2018-07-04T00:36:47.822Z,15.43
2018-07-04T00:37:47.998Z,15.43
2018-07-04T00:38:48.193Z,15.49
2018-07-04T00:39:48.375Z,15.59
2018-07-04T00:40:48.555Z,15.55
2018-07-04T00:41:48.746Z,15.58
2018-07-04T00:42:48.924Z,15.61
2018-07-04T00:43:49.109Z,15.64
2018-07-04T00:44:49.288Z,15.59
2018-07-04T00:45:49.462Z,15.62
2018-07-04T00:46:49.648Z,15.65
2018-07-04T00:47:49.825Z,15.58
2018-07-04T00:48:50.012Z,15.55
2018-07-04T00:49:50.196Z,15.42
2018-07-04T00:50:50.378Z,15.42
2018-07-04T00:51:50.568Z,15.40
2018-07-04T00:52:50.753Z,15.33
2018-07-04T00:53:50.930Z,15.27
2018-07-04T00:54:51.109Z,15.24
2018-07-04T00:55:51.286Z,15.22
2018-07-04T00:56:51.467Z,15.33
2018-07-04T00:57:51.648Z,15.24
2018-07-04T00:58:51.831Z,15.35
2018-07-04T00:59:52.013Z,15.35
2018-07-04T01:00:52.184Z,15.31
2018-07-04T01:01:52.382Z,15.27
2018-07-04T01:02:52.552Z,15.27
2018-07-04T01:03:52.737Z,15.31
2018-07-04T01:04:52.917Z,15.24
2018-07-04T01:05:53.094Z,15.35
2018-07-04T01:06:53.271Z,15.31
2018-07-04T01:07:53.444Z,15.29
2018-07-04T01:08:53.627Z,15.31
2018-07-04T01:09:53.804Z,15.28
2018-07-04T01:10:53.990Z,15.24
2018-07-04T01:11:54.177Z,15.19
2018-07-04T01:12:54.351Z,15.14
2018-07-04T01:13:54.533Z,15.09
2018-07-04T01:14:54.712Z,15.11
2018-07-04T01:15:54.896Z,14.99
2018-07-04T01:16:55.076Z,14.89
2018-07-04T01:17:55.262Z,14.88
2018-07-04T01:18:55.444Z,14.85
2018-07-04T01:19:55.625Z,14.72
2018-07-04T01:20:55.818Z,14.78
2018-07-04T01:21:55.997Z,14.63
2018-07-04T01:22:56.182Z,14.58
2018-07-04T01:23:56.356Z,14.66
2018-07-04T01:24:56.531Z,14.59
2018-07-04T01:25:56.724Z,14.62
2018-07-04T01:26:56.905Z,14.48
2018-07-04T01:27:57.084Z,14.53
2018-07-04T01:28:57.259Z,14.48
2018-07-04T01:29:57.437Z,14.47
2018-07-04T01:30:57.613Z,14.44
2018-07-04T01:31:57.801Z,14.45
2018-07-04T01:32:57.974Z,14.45
2018-07-04T01:33:58.161Z,14.48
2018-07-04T01:34:58.345Z,14.43
2018-07-04T01:35:58.527Z,14.43
2018-07-04T01:36:58.705Z,14.44
2018-07-04T01:37:58.895Z,14.48
2018-07-04T01:38:59.069Z,14.40
2018-07-04T01:39:59.246Z,14.43
2018-07-04T01:40:59.433Z,14.47
2018-07-04T01:41:59.614Z,14.44
2018-07-04T01:42:59.793Z,14.37
2018-07-04T01:43:59.975Z,14.37
2018-07-04T01:45:00.154Z,14.22
2018-07-04T01:46:00.345Z,14.28
2018-07-04T01:47:04.787Z,14.26
2018-07-04T01:48:03.891Z,14.25
2018-07-04T01:49:01.168Z,14.18
2018-07-04T01:50:01.250Z,14.20
2018-07-04T01:51:04.911Z,14.17
2018-07-04T01:52:05.396Z,14.23
2018-07-04T01:53:01.801Z,14.20
2018-07-04T01:54:02.005Z,14.10
2018-07-04T01:55:01.971Z,14.04
2018-07-04T01:56:02.150Z,14.10
2018-07-04T01:57:02.329Z,14.12
2018-07-04T01:58:02.527Z,14.15
2018-07-04T01:59:02.724Z,14.12
2018-07-04T02:00:02.891Z,14.14
2018-07-04T02:01:03.088Z,14.25
2018-07-04T02:02:03.263Z,14.26
2018-07-04T02:03:03.438Z,14.35
2018-07-04T02:04:03.619Z,14.23
2018-07-04T02:05:03.801Z,14.28
2018-07-04T02:06:03.993Z,14.28
2018-07-04T02:07:04.171Z,14.20
2018-07-04T02:08:04.350Z,14.07
2018-07-04T02:09:04.532Z,14.04
2018-07-04T02:10:04.702Z,13.97
2018-07-04T02:11:04.880Z,13.92
2018-07-04T02:12:05.076Z,14.00
2018-07-04T02:13:05.260Z,13.95
2018-07-04T02:14:05.441Z,13.95
2018-07-04T02:15:05.685Z,13.92
2018-07-04T02:16:05.810Z,13.86
2018-07-04T02:17:05.990Z,13.77
2018-07-04T02:18:06.179Z,13.87
2018-07-04T02:19:06.350Z,13.87
2018-07-04T02:20:06.528Z,13.79
2018-07-04T02:21:06.719Z,13.77
2018-07-04T02:22:06.894Z,13.79
2018-07-04T02:23:07.088Z,13.78
2018-07-04T02:24:07.254Z,13.86
2018-07-04T02:25:07.431Z,13.85
2018-07-04T02:26:07.610Z,13.78
2018-07-04T02:27:07.787Z,13.83
2018-07-04T02:28:07.962Z,13.75
2018-07-04T02:29:08.144Z,13.68
2018-07-04T02:30:08.323Z,13.86
2018-07-04T02:31:08.494Z,13.72
2018-07-04T02:32:08.678Z,13.63
2018-07-04T02:33:08.855Z,13.70
2018-07-04T02:34:09.032Z,13.68
2018-07-04T02:35:09.213Z,13.70
2018-07-04T02:36:09.398Z,13.60
2018-07-04T02:37:09.583Z,13.59
2018-07-04T02:38:09.762Z,13.63
2018-07-04T02:39:09.940Z,13.60
2018-07-04T02:40:10.129Z,13.53
2018-07-04T02:41:10.300Z,13.49
2018-07-04T02:42:10.480Z,13.37
2018-07-04T02:43:10.659Z,13.37
2018-07-04T02:44:10.836Z,13.33
2018-07-04T02:45:11.016Z,13.38
2018-07-04T02:46:11.194Z,13.37
2018-07-04T02:47:11.377Z,13.37
2018-07-04T02:48:11.555Z,13.35
2018-07-04T02:49:11.743Z,13.33
2018-07-04T02:50:11.935Z,13.35
2018-07-04T02:51:12.122Z,13.33
2018-07-04T02:52:12.296Z,13.35
2018-07-04T02:53:12.464Z,13.31
2018-07-04T02:54:12.647Z,13.37
2018-07-04T02:55:12.832Z,13.31
2018-07-04T02:56:13.009Z,13.19
2018-07-04T02:57:13.198Z,13.28
2018-07-04T02:58:13.375Z,13.28
2018-07-04T02:59:13.558Z,13.31
2018-07-04T03:00:13.732Z,13.38
2018-07-04T03:01:13.912Z,13.27
2018-07-04T03:02:14.092Z,13.22
2018-07-04T03:03:14.284Z,13.23
2018-07-04T03:04:14.464Z,13.25
2018-07-04T03:05:14.633Z,13.27
2018-07-04T03:06:14.829Z,13.30
2018-07-04T03:07:15.006Z,13.22
2018-07-04T03:08:15.178Z,13.33
2018-07-04T03:09:15.366Z,13.31
2018-07-04T03:10:15.545Z,13.42
2018-07-04T03:11:15.727Z,13.35
2018-07-04T03:12:15.904Z,13.35
2018-07-04T03:13:16.099Z,13.47
2018-07-04T03:14:16.285Z,13.52
2018-07-04T03:15:16.466Z,13.54
2018-07-04T03:16:16.636Z,13.57
2018-07-04T03:17:16.814Z,13.56
2018-07-04T03:18:16.997Z,13.54
2018-07-04T03:19:17.172Z,13.67
2018-07-04T03:20:17.347Z,13.59
2018-07-04T03:21:17.542Z,13.57
2018-07-04T03:22:17.724Z,13.50
2018-07-04T03:23:17.903Z,13.44
2018-07-04T03:24:18.090Z,13.41
2018-07-04T03:25:18.260Z,13.37
2018-07-04T03:26:18.450Z,13.33
2018-07-04T03:27:18.636Z,13.31
2018-07-04T03:28:18.814Z,13.37
2018-07-04T03:29:18.997Z,13.35
2018-07-04T03:30:19.184Z,13.35
2018-07-04T03:31:19.366Z,13.28
2018-07-04T03:32:19.537Z,13.38
2018-07-04T03:33:19.726Z,13.31
2018-07-04T03:34:19.900Z,13.22
2018-07-04T03:35:20.075Z,13.27
2018-07-04T03:36:20.254Z,13.33
2018-07-04T03:37:20.427Z,13.31
2018-07-04T03:38:20.609Z,13.27
2018-07-04T03:39:20.789Z,13.30
2018-07-04T03:40:20.962Z,13.30
2018-07-04T03:41:21.135Z,13.35
2018-07-04T03:42:21.365Z,13.30
2018-07-04T03:43:21.506Z,13.38
2018-07-04T03:44:21.689Z,13.33
2018-07-04T03:45:21.866Z,13.27
2018-07-04T03:46:22.050Z,13.38
2018-07-04T03:47:22.223Z,13.35
2018-07-04T03:48:22.400Z,13.23
2018-07-04T03:49:22.571Z,13.33
2018-07-04T03:50:22.756Z,13.38
2018-07-04T03:51:22.929Z,13.47
2018-07-04T03:52:23.114Z,13.47
2018-07-04T03:53:23.288Z,13.50
2018-07-04T03:54:23.458Z,13.53
2018-07-04T03:55:23.641Z,13.59
2018-07-04T03:56:23.821Z,13.62
2018-07-04T03:57:24.009Z,13.62
2018-07-04T03:58:24.204Z,13.75
2018-07-04T03:59:24.387Z,13.68
2018-07-04T04:00:24.566Z,13.77
2018-07-04T04:01:24.753Z,13.83
2018-07-04T04:02:24.932Z,13.74
2018-07-04T04:03:25.108Z,13.72
2018-07-04T04:04:25.358Z,13.79
2018-07-04T04:05:25.515Z,13.86
2018-07-04T04:06:25.700Z,13.72
2018-07-04T04:07:25.959Z,13.68
2018-07-04T04:08:25.983Z,13.74
2018-07-04T04:09:26.160Z,13.77
2018-07-04T04:10:26.338Z,13.83
2018-07-04T04:11:26.513Z,13.92
2018-07-04T04:12:26.694Z,13.95
2018-07-04T04:13:26.903Z,14.03
2018-07-04T04:14:27.419Z,13.92
2018-07-04T04:15:27.511Z,13.85
2018-07-04T04:16:27.537Z,13.81
2018-07-04T04:17:27.546Z,13.85
2018-07-04T04:18:27.735Z,13.81
2018-07-04T04:19:28.083Z,13.79
2018-07-04T04:20:28.081Z,13.83
2018-07-04T04:21:28.267Z,13.75
2018-07-04T04:22:28.456Z,13.77
2018-07-04T04:23:28.647Z,13.83
2018-07-04T04:24:28.824Z,13.89
2018-07-04T04:25:29.004Z,13.90
2018-07-04T04:26:29.216Z,14.03
2018-07-04T04:27:29.895Z,14.10
2018-07-04T04:28:29.578Z,14.07
2018-07-04T04:29:29.877Z,14.22
2018-07-04T04:30:29.947Z,14.15
2018-07-04T04:31:30.122Z,14.22
2018-07-04T04:32:30.337Z,14.32
2018-07-04T04:33:30.496Z,14.33
2018-07-04T04:34:30.679Z,14.43
2018-07-04T04:35:30.890Z,14.43
2018-07-04T04:36:31.071Z,14.41
2018-07-04T04:37:34.450Z,14.45
2018-07-04T04:38:31.459Z,14.55
2018-07-04T04:39:33.888Z,14.62
2018-07-04T04:40:34.677Z,14.47
2018-07-04T04:41:32.196Z,14.55
2018-07-04T04:42:31.960Z,14.58
2018-07-04T04:43:32.143Z,14.62
2018-07-04T04:44:32.326Z,14.66
2018-07-04T04:45:32.510Z,14.62
2018-07-04T04:46:32.681Z,14.68
2018-07-04T04:47:32.860Z,14.70
2018-07-04T04:48:33.033Z,14.60
2018-07-04T04:49:33.217Z,14.66
2018-07-04T04:50:33.395Z,14.72
2018-07-04T04:51:33.586Z,14.72
2018-07-04T04:52:33.758Z,14.78
2018-07-04T04:53:33.928Z,14.73
2018-07-04T04:54:34.119Z,14.86
2018-07-04T04:55:34.305Z,14.86
2018-07-04T04:56:34.486Z,14.85
2018-07-04T04:57:34.671Z,14.86
2018-07-04T04:58:34.850Z,14.86
2018-07-04T04:59:35.063Z,15.00
2018-07-04T05:00:35.244Z,15.10
2018-07-04T05:01:35.431Z,15.19
2018-07-04T05:02:35.610Z,15.24
2018-07-04T05:03:35.805Z,15.39
2018-07-04T05:04:36.446Z,15.43
2018-07-04T05:05:36.090Z,15.58
2018-07-04T05:06:36.310Z,15.68
2018-07-04T05:07:36.486Z,15.72
2018-07-04T05:08:36.698Z,15.70
2018-07-04T05:09:36.866Z,15.68
2018-07-04T05:10:37.050Z,15.77
2018-07-04T05:11:37.240Z,15.95
2018-07-04T05:12:37.426Z,15.95
2018-07-04T05:13:38.042Z,15.80
2018-07-04T05:14:37.728Z,15.84
2018-07-04T05:15:37.933Z,15.90
2018-07-04T05:16:38.096Z,15.92
2018-07-04T05:17:38.280Z,16.12
2018-07-04T05:18:38.458Z,16.35
2018-07-04T05:19:38.668Z,16.33
2018-07-04T05:20:40.915Z,16.36
2018-07-04T05:21:40.489Z,16.39
2018-07-04T05:22:40.715Z,16.43
2018-07-04T05:23:41.340Z,16.58
2018-07-04T05:24:41.038Z,16.68
2018-07-04T05:25:41.306Z,16.84
2018-07-04T05:26:42.422Z,17.02
2018-07-04T05:27:43.661Z,17.02
2018-07-04T05:28:42.267Z,16.94
2018-07-04T05:29:44.155Z,17.06
2018-07-04T05:30:40.526Z,17.04
2018-07-04T05:31:43.719Z,17.14
2018-07-04T05:32:45.256Z,16.97
2018-07-04T05:33:42.623Z,17.19
2018-07-04T05:34:43.850Z,17.22
2018-07-04T05:35:42.712Z,17.38
2018-07-04T05:36:42.471Z,17.51
2018-07-04T05:37:43.030Z,17.56
2018-07-04T05:38:43.245Z,17.65
2018-07-04T05:39:43.670Z,17.54
2018-07-04T05:40:43.834Z,17.68
2018-07-04T05:41:45.405Z,17.82
2018-07-04T05:42:43.904Z,17.90
2018-07-04T05:43:45.066Z,17.98
2018-07-04T05:44:42.874Z,18.13
2018-07-04T05:45:47.061Z,18.23
2018-07-04T05:46:47.603Z,18.18
2018-07-04T05:47:44.723Z,18.23
2018-07-04T05:48:44.017Z,18.13
2018-07-04T05:49:43.728Z,18.22
2018-07-04T05:50:44.197Z,18.20
2018-07-04T05:51:44.026Z,18.41
2018-07-04T05:52:44.208Z,18.58
2018-07-04T05:53:44.385Z,18.55
2018-07-04T05:54:44.609Z,18.65
2018-07-04T05:55:44.823Z,18.63
2018-07-04T05:56:45.066Z,18.78
2018-07-04T05:57:45.119Z,18.66
2018-07-04T05:58:45.334Z,18.73
2018-07-04T05:59:45.561Z,18.92
2018-07-04T06:00:45.612Z,18.89
2018-07-04T06:01:45.800Z,18.99
2018-07-04T06:02:46.057Z,19.04
2018-07-04T06:03:46.182Z,19.16
2018-07-04T06:04:46.357Z,19.15
2018-07-04T06:05:46.537Z,19.30
2018-07-04T06:06:46.738Z,19.39
2018-07-04T06:07:46.942Z,19.41
2018-07-04T06:08:47.033Z,19.30
2018-07-04T06:09:47.216Z,19.29
2018-07-04T06:10:47.401Z,19.30
2018-07-04T06:11:47.580Z,19.49
2018-07-04T06:12:47.756Z,19.47
2018-07-04T06:13:47.948Z,19.58
2018-07-04T06:14:48.167Z,19.81
2018-07-04T06:15:48.350Z,19.85
2018-07-04T06:16:48.585Z,19.91
2018-07-04T06:17:48.639Z,19.92
2018-07-04T06:18:48.864Z,20.13
2018-07-04T06:19:49.081Z,20.37
2018-07-04T06:20:49.263Z,20.31
2018-07-04T06:21:49.461Z,20.40
2018-07-04T06:22:49.650Z,20.72
2018-07-04T06:23:49.845Z,20.72
2018-07-04T06:24:50.101Z,20.99
2018-07-04T06:25:50.249Z,21.14
2018-07-04T06:26:50.436Z,21.39
2018-07-04T06:27:50.617Z,21.69
2018-07-04T06:28:50.800Z,21.80
2018-07-04T06:29:50.993Z,21.98
2018-07-04T06:30:51.190Z,22.15
2018-07-04T06:31:51.378Z,22.39
2018-07-04T06:32:51.571Z,22.75
2018-07-04T06:33:51.759Z,23.02
2018-07-04T06:34:51.947Z,23.48
2018-07-04T06:35:52.138Z,23.86
2018-07-04T06:36:52.327Z,24.17
2018-07-04T06:37:52.530Z,24.47
2018-07-04T06:38:52.727Z,24.99
2018-07-04T06:39:52.916Z,25.46
2018-07-04T06:40:53.104Z,25.99
2018-07-04T06:41:53.295Z,26.60
2018-07-04T06:42:53.516Z,26.96
2018-07-04T06:43:53.757Z,27.10
2018-07-04T06:44:53.931Z,27.45
2018-07-04T06:45:54.144Z,27.92
2018-07-04T06:46:54.347Z,28.44
2018-07-04T06:47:54.570Z,29.05
2018-07-04T06:48:54.947Z,29.39
2018-07-04T06:49:54.958Z,29.78
2018-07-04T06:50:55.161Z,30.06
2018-07-04T06:51:55.368Z,30.32
2018-07-04T06:52:55.545Z,30.70
2018-07-04T06:53:55.732Z,30.90
2018-07-04T06:54:55.937Z,31.02
2018-07-04T06:55:56.132Z,31.03
2018-07-04T06:56:56.332Z,30.73
2018-07-04T06:57:56.519Z,30.80
2018-07-04T06:58:56.726Z,31.31
2018-07-04T06:59:56.920Z,31.58
2018-07-04T07:00:57.114Z,31.87
2018-07-04T07:01:57.392Z,32.03
2018-07-04T07:02:57.518Z,32.00
2018-07-04T07:03:57.701Z,32.15
2018-07-04T07:04:57.925Z,32.27
2018-07-04T07:05:58.212Z,32.49
2018-07-04T07:06:59.031Z,32.67
2018-07-04T07:07:58.591Z,32.21
2018-07-04T07:09:00.609Z,32.19
2018-07-04T07:09:58.858Z,32.40
2018-07-04T07:10:59.058Z,32.46
2018-07-04T07:11:59.246Z,32.59
2018-07-04T07:12:59.440Z,32.82
2018-07-04T07:13:59.635Z,33.08
2018-07-04T07:14:59.832Z,32.92
2018-07-04T07:16:00.032Z,33.14
2018-07-04T07:17:00.232Z,32.96
2018-07-04T07:18:00.429Z,32.70
2018-07-04T07:19:00.625Z,32.71
2018-07-04T07:20:00.819Z,33.12
2018-07-04T07:21:01.009Z,33.23
2018-07-04T07:22:01.211Z,33.20
2018-07-04T07:23:01.538Z,33.32
2018-07-04T07:24:02.134Z,33.61
2018-07-04T07:25:02.378Z,33.52
2018-07-04T07:26:02.190Z,33.73
2018-07-04T07:27:02.327Z,33.90
2018-07-04T07:28:02.676Z,33.90
2018-07-04T07:29:02.835Z,33.77
2018-07-04T07:30:02.921Z,34.02
2018-07-04T07:31:03.242Z,33.79
2018-07-04T07:32:03.507Z,34.11
2018-07-04T07:33:03.575Z,34.62
2018-07-04T07:34:04.313Z,35.07
2018-07-04T07:35:03.803Z,35.44
2018-07-04T07:36:04.985Z,35.58
2018-07-04T07:37:04.190Z,36.02
2018-07-04T07:38:04.726Z,36.33
2018-07-04T07:39:04.378Z,36.58
2018-07-04T07:40:04.731Z,36.92
2018-07-04T07:41:04.815Z,37.37
2018-07-04T07:42:05.317Z,37.72
2018-07-04T07:43:05.023Z,37.75
2018-07-04T07:44:06.639Z,38.21
2018-07-04T07:45:05.151Z,38.39
2018-07-04T07:46:05.434Z,38.57
2018-07-04T07:47:05.799Z,38.82
2018-07-04T07:48:05.788Z,38.97
2018-07-04T07:49:06.017Z,39.03
2018-07-04T07:50:05.987Z,38.60
2018-07-04T07:51:06.899Z,38.42
2018-07-04T07:52:06.173Z,37.65
2018-07-04T07:53:06.376Z,37.63
2018-07-04T07:54:06.627Z,37.64
2018-07-04T07:55:06.763Z,37.84
2018-07-04T07:56:06.991Z,38.45
2018-07-04T07:57:07.178Z,38.46
2018-07-04T07:58:07.400Z,38.33
2018-07-04T07:59:07.592Z,38.34
2018-07-04T08:00:07.777Z,38.14
2018-07-04T08:01:07.972Z,38.19
2018-07-04T08:02:08.201Z,38.27
2018-07-04T08:03:08.384Z,38.83
2018-07-04T08:04:08.613Z,39.25
2018-07-04T08:05:08.778Z,39.59
2018-07-04T08:06:09.020Z,39.86
2018-07-04T08:07:09.228Z,40.33
2018-07-04T08:08:09.422Z,40.61
2018-07-04T08:09:09.701Z,40.96
2018-07-04T08:10:09.774Z,40.90
2018-07-04T08:11:10.168Z,41.03
2018-07-04T08:12:10.341Z,41.06
2018-07-04T08:13:10.307Z,41.37
2018-07-04T08:14:10.525Z,41.85
2018-07-04T08:15:10.776Z,41.97
2018-07-04T08:16:11.205Z,42.21
2018-07-04T08:17:11.198Z,42.32
2018-07-04T08:18:12.252Z,41.36
2018-07-04T08:19:11.459Z,41.90
2018-07-04T08:20:11.664Z,41.29
2018-07-04T08:21:11.984Z,40.82
2018-07-04T08:22:12.015Z,39.96
2018-07-04T08:23:12.217Z,39.53
2018-07-04T08:24:12.414Z,38.76
2018-07-04T08:25:12.617Z,37.96
2018-07-04T08:26:12.849Z,37.40
2018-07-04T08:27:13.046Z,36.43
2018-07-04T08:28:13.265Z,36.09
2018-07-04T08:29:13.470Z,35.55
2018-07-04T08:30:13.669Z,35.46
2018-07-04T08:31:13.910Z,35.74
2018-07-04T08:32:14.598Z,35.36
2018-07-04T08:33:14.546Z,34.92
2018-07-04T08:34:14.795Z,34.58
2018-07-04T08:35:14.492Z,34.89
2018-07-04T08:36:14.694Z,34.66
2018-07-04T08:37:14.898Z,34.21
2018-07-04T08:38:15.099Z,34.02
2018-07-04T08:39:15.370Z,33.61
2018-07-04T08:40:15.513Z,33.39
2018-07-04T08:41:15.710Z,33.15
2018-07-04T08:42:15.907Z,33.05
2018-07-04T08:43:19.356Z,33.02
2018-07-04T08:44:16.269Z,33.19
2018-07-04T08:45:16.484Z,33.80
2018-07-04T08:46:18.532Z,34.43
2018-07-04T08:47:16.791Z,34.75
2018-07-04T08:48:16.979Z,34.97
2018-07-04T08:49:17.175Z,35.15
2018-07-04T08:50:17.362Z,34.99
2018-07-04T08:51:18.821Z,34.89
2018-07-04T08:52:19.682Z,34.32
2018-07-04T08:53:17.933Z,33.99
2018-07-04T08:54:18.175Z,33.95
2018-07-04T08:55:18.541Z,34.11
2018-07-04T08:56:20.205Z,34.20
2018-07-04T08:57:22.039Z,33.96
2018-07-04T08:58:19.955Z,33.64
2018-07-04T08:59:19.875Z,33.31
2018-07-04T09:00:23.184Z,33.05
2018-07-04T09:01:21.180Z,33.09
2018-07-04T09:02:23.303Z,32.97
2018-07-04T09:03:20.738Z,33.17
2018-07-04T09:04:24.316Z,33.30
2018-07-04T09:05:21.227Z,33.30
2018-07-04T09:06:22.669Z,33.07
2018-07-04T09:07:21.857Z,32.93
2018-07-04T09:08:22.447Z,33.14
2018-07-04T09:09:21.044Z,33.11
2018-07-04T09:10:21.124Z,33.40
2018-07-04T09:11:21.832Z,33.76
2018-07-04T09:12:21.420Z,33.61
2018-07-04T09:13:21.646Z,33.43
2018-07-04T09:14:21.938Z,33.79
2018-07-04T09:15:21.970Z,34.30
2018-07-04T09:16:22.178Z,34.50
2018-07-04T09:17:22.367Z,34.88
2018-07-04T09:18:27.213Z,35.23
2018-07-04T09:19:22.742Z,35.51
2018-07-04T09:20:22.968Z,35.97
2018-07-04T09:21:23.134Z,36.59
2018-07-04T09:22:23.347Z,36.96
2018-07-04T09:23:23.551Z,36.91
2018-07-04T09:24:23.733Z,36.54
2018-07-04T09:25:23.928Z,36.76
2018-07-04T09:26:24.116Z,36.89
2018-07-04T09:27:24.304Z,37.58
2018-07-04T09:28:24.515Z,37.86
2018-07-04T09:29:24.736Z,38.42
2018-07-04T09:30:24.943Z,38.34
2018-07-04T09:31:25.140Z,38.26
2018-07-04T09:32:25.337Z,38.61
2018-07-04T09:33:25.582Z,39.02
2018-07-04T09:34:27.324Z,39.03
2018-07-04T09:35:25.900Z,39.03
2018-07-04T09:36:26.119Z,39.41
2018-07-04T09:37:26.357Z,39.77
2018-07-04T09:38:26.675Z,39.94
2018-07-04T09:39:26.701Z,39.92
2018-07-04T09:40:27.076Z,39.96
2018-07-04T09:41:27.025Z,40.04
2018-07-04T09:42:28.046Z,40.40
2018-07-04T09:43:27.384Z,40.78
2018-07-04T09:44:27.580Z,40.63
2018-07-04T09:45:27.791Z,40.61
2018-07-04T09:46:27.995Z,40.40
2018-07-04T09:47:28.193Z,40.24
2018-07-04T09:48:28.471Z,39.31
2018-07-04T09:49:28.682Z,39.26
2018-07-04T09:50:28.998Z,39.34
2018-07-04T09:51:28.940Z,39.26
2018-07-04T09:52:29.004Z,39.22
2018-07-04T09:53:29.201Z,38.74
2018-07-04T09:54:29.391Z,38.15
2018-07-04T09:55:29.598Z,38.40
2018-07-04T09:56:29.780Z,38.12
2018-07-04T09:57:29.975Z,38.20
2018-07-04T09:58:30.170Z,38.48
2018-07-04T09:59:30.383Z,39.02
2018-07-04T10:00:30.569Z,39.02
2018-07-04T10:01:30.762Z,39.09
2018-07-04T10:02:30.966Z,39.03
2018-07-04T10:03:31.159Z,38.87
2018-07-04T10:04:31.354Z,38.34
2018-07-04T10:05:31.561Z,37.86
2018-07-04T10:06:32.388Z,37.59
2018-07-04T10:07:31.983Z,37.67
2018-07-04T10:08:32.173Z,37.56
2018-07-04T10:09:32.370Z,37.53
2018-07-04T10:10:32.567Z,37.26
2018-07-04T10:11:32.756Z,37.15
2018-07-04T10:12:33.009Z,37.13
2018-07-04T10:13:33.079Z,36.62
2018-07-04T10:14:33.280Z,36.54
2018-07-04T10:15:33.748Z,36.17
2018-07-04T10:16:33.684Z,35.71
2018-07-04T10:17:33.936Z,35.42
2018-07-04T10:18:34.121Z,35.27
2018-07-04T10:19:34.328Z,35.18
2018-07-04T10:20:34.505Z,35.18
2018-07-04T10:21:34.703Z,35.08
2018-07-04T10:22:34.901Z,34.83
2018-07-04T10:23:35.095Z,34.75
2018-07-04T10:24:35.312Z,34.62
2018-07-04T10:25:35.483Z,34.38
2018-07-04T10:26:35.676Z,34.35
2018-07-04T10:27:35.874Z,34.18
2018-07-04T10:28:36.075Z,34.14
2018-07-04T10:29:36.259Z,34.02
2018-07-04T10:30:36.457Z,34.10
2018-07-04T10:31:36.691Z,34.01
2018-07-04T10:32:36.768Z,34.01
2018-07-04T10:33:36.988Z,33.90
2018-07-04T10:34:37.237Z,33.74
2018-07-04T10:35:37.330Z,33.65
2018-07-04T10:36:37.517Z,33.31
2018-07-04T10:37:37.744Z,33.22
2018-07-04T10:38:37.943Z,33.28
2018-07-04T10:39:38.129Z,33.20
2018-07-04T10:40:38.331Z,33.28
2018-07-04T10:41:38.532Z,33.04
2018-07-04T10:42:38.999Z,32.96
2018-07-04T10:43:38.976Z,32.96
2018-07-04T10:44:39.208Z,32.60
2018-07-04T10:45:39.316Z,32.40
2018-07-04T10:46:39.516Z,32.30
2018-07-04T10:47:39.704Z,32.33
2018-07-04T10:48:39.906Z,32.18
2018-07-04T10:49:40.469Z,32.18
2018-07-04T10:50:40.254Z,32.19
2018-07-04T10:51:40.465Z,31.96
2018-07-04T10:52:40.664Z,32.01
2018-07-04T10:53:40.877Z,31.96
2018-07-04T10:54:41.085Z,31.99
2018-07-04T10:55:41.274Z,32.07
2018-07-04T10:56:41.777Z,32.08
2018-07-04T10:57:41.672Z,31.96
2018-07-04T10:58:41.898Z,32.07
2018-07-04T10:59:42.072Z,31.92
2018-07-04T11:00:42.279Z,32.04
2018-07-04T11:01:42.473Z,32.07
2018-07-04T11:02:42.681Z,32.27
2018-07-04T11:03:42.879Z,32.33
2018-07-04T11:04:43.166Z,32.46
2018-07-04T11:05:43.223Z,32.63
2018-07-04T11:06:43.430Z,32.82
2018-07-04T11:07:43.656Z,32.60
2018-07-04T11:08:44.082Z,32.68
2018-07-04T11:09:44.219Z,32.75
2018-07-04T11:10:44.344Z,32.89
2018-07-04T11:11:44.573Z,32.78
2018-07-04T11:12:44.831Z,32.78
2018-07-04T11:13:46.138Z,32.85
2018-07-04T11:14:46.243Z,32.89
2018-07-04T11:15:45.177Z,32.93
2018-07-04T11:16:45.159Z,32.86
2018-07-04T11:17:45.261Z,32.71
2018-07-04T11:18:46.230Z,32.73
2018-07-04T11:19:45.686Z,32.67
2018-07-04T11:20:45.761Z,32.82
2018-07-04T11:21:45.942Z,32.92
2018-07-04T11:22:46.130Z,32.92
2018-07-04T11:23:46.394Z,33.19
2018-07-04T11:24:46.508Z,33.28
2018-07-04T11:25:48.190Z,33.23
2018-07-04T11:26:47.290Z,33.39
2018-07-04T11:27:48.360Z,33.42
2018-07-04T11:28:48.579Z,33.43
2018-07-04T11:29:48.498Z,33.45
2018-07-04T11:30:48.118Z,33.58
2018-07-04T11:31:49.569Z,33.68
2018-07-04T11:32:48.161Z,33.45
2018-07-04T11:33:48.211Z,33.64
2018-07-04T11:34:49.316Z,33.58
2018-07-04T11:35:49.708Z,33.47
2018-07-04T11:36:48.603Z,33.53
2018-07-04T11:37:48.793Z,33.59
2018-07-04T11:38:49.007Z,33.19
2018-07-04T11:39:49.624Z,33.31
2018-07-04T11:40:49.425Z,33.52
2018-07-04T11:41:49.497Z,33.36
2018-07-04T11:42:49.744Z,33.20
2018-07-04T11:43:49.903Z,33.31
2018-07-04T11:44:49.969Z,33.31
2018-07-04T11:45:50.156Z,33.30
2018-07-04T11:46:50.668Z,33.20
2018-07-04T11:47:50.584Z,33.19
2018-07-04T11:48:53.792Z,33.24
2018-07-04T11:49:50.978Z,33.28
2018-07-04T11:50:51.175Z,33.24
2018-07-04T11:51:51.367Z,33.17
2018-07-04T11:52:51.578Z,33.17
2018-07-04T11:53:51.761Z,33.00
2018-07-04T11:54:51.957Z,32.93
2018-07-04T11:55:52.154Z,32.90
2018-07-04T11:56:52.335Z,32.68
2018-07-04T11:57:52.551Z,32.64
2018-07-04T11:58:52.836Z,32.87
2018-07-04T11:59:53.251Z,32.77
2018-07-04T12:00:53.511Z,32.87
2018-07-04T12:01:53.863Z,33.08
2018-07-04T12:02:53.802Z,33.22
2018-07-04T12:03:53.843Z,33.20
2018-07-04T12:04:54.196Z,33.19
2018-07-04T12:05:54.500Z,33.39
2018-07-04T12:06:54.168Z,33.37
2018-07-04T12:07:54.377Z,33.55
2018-07-04T12:08:55.407Z,33.59
2018-07-04T12:09:54.766Z,33.62
2018-07-04T12:10:57.279Z,33.46
2018-07-04T12:11:55.102Z,33.42
2018-07-04T12:12:55.485Z,33.17
2018-07-04T12:13:55.534Z,33.02
2018-07-04T12:14:56.290Z,32.92
2018-07-04T12:15:55.886Z,32.95
2018-07-04T12:16:56.090Z,33.01
2018-07-04T12:17:56.321Z,32.73
2018-07-04T12:18:56.537Z,32.75
2018-07-04T12:19:56.777Z,32.80
2018-07-04T12:20:56.929Z,32.93
2018-07-04T12:21:57.055Z,32.93
2018-07-04T12:22:57.206Z,33.14
2018-07-04T12:23:57.397Z,32.82
2018-07-04T12:24:57.594Z,32.87
2018-07-04T12:25:57.807Z,32.97
2018-07-04T12:26:58.093Z,33.09
2018-07-04T12:27:58.231Z,32.97
2018-07-04T12:28:58.417Z,33.12
2018-07-04T12:29:58.614Z,33.17
2018-07-04T12:30:58.803Z,33.11
2018-07-04T12:31:59.265Z,32.87
2018-07-04T12:32:59.158Z,32.78
2018-07-04T12:33:59.508Z,33.00
2018-07-04T12:34:59.814Z,33.22
2018-07-04T12:35:59.800Z,33.20
2018-07-04T12:36:59.986Z,33.24
2018-07-04T12:38:00.180Z,33.30
2018-07-04T12:39:00.393Z,33.20
2018-07-04T12:40:00.825Z,33.15
2018-07-04T12:41:00.893Z,33.28
2018-07-04T12:42:00.892Z,33.24
2018-07-04T12:43:00.959Z,33.15
2018-07-04T12:44:01.456Z,33.11
2018-07-04T12:45:01.534Z,32.95
2018-07-04T12:46:01.447Z,32.68
2018-07-04T12:47:01.836Z,32.63
2018-07-04T12:48:01.770Z,32.67
2018-07-04T12:49:01.997Z,32.86
2018-07-04T12:50:02.156Z,32.89
2018-07-04T12:51:02.353Z,32.80
2018-07-04T12:52:02.534Z,32.97
2018-07-04T12:53:02.815Z,32.86
2018-07-04T12:54:02.965Z,32.70
2018-07-04T12:55:03.103Z,32.78